createdAt,value
2024-01-05T00:00:10.102Z,988.91
2024-01-05T00:01:10.008Z,988.90
2024-01-05T00:02:12.898Z,988.94
2024-01-05T00:03:10.058Z,988.91
2024-01-05T00:04:10.092Z,988.89
2024-01-05T00:05:09.938Z,988.92
2024-01-05T00:06:10.021Z,988.95
2024-01-05T00:07:09.982Z,988.90
2024-01-05T00:08:09.901Z,988.91
2024-01-05T00:09:09.961Z,988.95
2024-01-05T00:10:09.908Z,988.85
2024-01-05T00:11:09.885Z,988.86
2024-01-05T00:12:09.915Z,988.86
2024-01-05T00:13:09.909Z,988.89
2024-01-05T00:14:09.826Z,988.88
2024-01-05T00:15:09.905Z,988.90
2024-01-05T00:16:09.806Z,988.86
2024-01-05T00:17:09.801Z,988.83
2024-01-05T00:18:09.887Z,988.78
2024-01-05T00:19:09.898Z,988.74
2024-01-05T00:20:09.814Z,988.83
2024-01-05T00:21:09.792Z,988.81
2024-01-05T00:22:09.744Z,988.83
2024-01-05T00:23:09.723Z,988.79
2024-01-05T00:24:09.774Z,988.79
2024-01-05T00:25:09.709Z,988.80
2024-01-05T00:26:09.694Z,988.79
2024-01-05T00:27:09.713Z,988.79
2024-01-05T00:28:09.676Z,988.83
2024-01-05T00:29:09.643Z,988.78
2024-01-05T00:30:09.783Z,988.83
2024-01-05T00:31:09.738Z,988.80
2024-01-05T00:32:09.646Z,988.71
2024-01-05T00:33:09.662Z,988.73
2024-01-05T00:34:09.824Z,988.76
2024-01-05T00:35:09.603Z,988.76
2024-01-05T00:36:09.640Z,988.74
2024-01-05T00:37:09.571Z,988.71
2024-01-05T00:38:09.568Z,988.68
2024-01-05T00:39:09.597Z,988.68
2024-01-05T00:40:09.551Z,988.71
2024-01-05T00:41:09.512Z,988.69
2024-01-05T00:42:09.521Z,988.70
2024-01-05T00:43:09.508Z,988.63
2024-01-05T00:44:09.517Z,988.66
2024-01-05T00:45:09.550Z,988.65
2024-01-05T00:46:09.478Z,988.61
2024-01-05T00:47:09.503Z,988.58
2024-01-05T00:48:09.537Z,988.59
2024-01-05T00:49:09.548Z,988.57
2024-01-05T00:50:09.480Z,988.59
2024-01-05T00:51:09.454Z,988.61
2024-01-05T00:52:09.477Z,988.60
2024-01-05T00:53:09.385Z,988.58
2024-01-05T00:54:09.418Z,988.59
2024-01-05T00:55:09.399Z,988.62
2024-01-05T00:56:09.385Z,988.58
2024-01-05T00:57:11.551Z,988.55
2024-01-05T00:58:09.316Z,988.61
2024-01-05T00:59:09.316Z,988.58
2024-01-05T01:00:09.396Z,988.62
2024-01-05T01:01:09.284Z,988.60
2024-01-05T01:02:09.415Z,988.63
2024-01-05T01:03:09.367Z,988.59
2024-01-05T01:04:09.389Z,988.64
2024-01-05T01:05:09.338Z,988.66
2024-01-05T01:06:09.260Z,988.64
2024-01-05T01:07:09.232Z,988.63
2024-01-05T01:08:09.260Z,988.59
2024-01-05T01:09:09.252Z,988.62
2024-01-05T01:10:09.202Z,988.61
2024-01-05T01:11:09.179Z,988.66
2024-01-05T01:12:09.225Z,988.62
2024-01-05T01:13:09.148Z,988.56
2024-01-05T01:14:09.204Z,988.64
2024-01-05T01:15:09.214Z,988.56
2024-01-05T01:16:09.137Z,988.59
2024-01-05T01:17:09.105Z,988.59
2024-01-05T01:18:09.253Z,988.52
2024-01-05T01:19:09.194Z,988.54
2024-01-05T01:20:09.122Z,988.55
2024-01-05T01:21:09.142Z,988.55
2024-01-05T01:22:09.046Z,988.48
2024-01-05T01:23:09.047Z,988.51
2024-01-05T01:24:09.046Z,988.54
2024-01-05T01:25:09.054Z,988.47
2024-01-05T01:26:09.015Z,988.53
2024-01-05T01:27:09.044Z,988.50
2024-01-05T01:28:08.991Z,988.51
2024-01-05T01:29:08.960Z,988.49
2024-01-05T01:30:09.069Z,988.48
2024-01-05T01:31:09.064Z,988.43
2024-01-05T01:32:08.929Z,988.46
2024-01-05T01:33:09.178Z,988.42
2024-01-05T01:34:08.970Z,988.41
2024-01-05T01:35:08.909Z,988.41
2024-01-05T01:36:08.903Z,988.37
2024-01-05T01:37:08.927Z,988.35
2024-01-05T01:38:08.852Z,988.35
2024-01-05T01:39:08.885Z,988.29
2024-01-05T01:40:08.835Z,988.28
2024-01-05T01:41:08.818Z,988.27
2024-01-05T01:42:08.987Z,988.24
2024-01-05T01:43:08.870Z,988.31
2024-01-05T01:44:08.779Z,988.31
2024-01-05T01:45:08.799Z,988.36
2024-01-05T01:46:08.782Z,988.29
2024-01-05T01:47:08.796Z,988.24
2024-01-05T01:48:08.894Z,988.20
2024-01-05T01:49:08.996Z,988.17
2024-01-05T01:50:08.757Z,988.17
2024-01-05T01:51:08.736Z,988.20
2024-01-05T01:52:08.736Z,988.14
2024-01-05T01:53:08.717Z,988.18
2024-01-05T01:54:08.727Z,988.13
2024-01-05T01:55:08.681Z,988.11
2024-01-05T01:56:08.720Z,988.13
2024-01-05T01:57:08.759Z,988.15
2024-01-05T01:58:08.642Z,988.14
2024-01-05T01:59:08.627Z,988.11
2024-01-05T02:00:08.773Z,988.11
2024-01-05T02:01:08.697Z,988.13
2024-01-05T02:02:08.628Z,988.10
2024-01-05T02:03:08.703Z,988.11
2024-01-05T02:04:08.659Z,988.12
2024-01-05T02:05:08.563Z,988.12
2024-01-05T02:06:08.626Z,988.15
2024-01-05T02:07:08.556Z,988.10
2024-01-05T02:08:08.500Z,988.11
2024-01-05T02:09:08.494Z,988.06
2024-01-05T02:10:08.511Z,988.11
2024-01-05T02:11:08.622Z,988.07
2024-01-05T02:12:08.485Z,988.07
2024-01-05T02:13:08.470Z,988.08
2024-01-05T02:14:08.439Z,988.07
2024-01-05T02:15:08.532Z,988.12
2024-01-05T02:16:08.452Z,988.08
2024-01-05T02:17:08.429Z,988.06
2024-01-05T02:18:08.563Z,988.06
2024-01-05T02:19:08.569Z,988.03
2024-01-05T02:20:08.399Z,987.96
2024-01-05T02:21:08.417Z,987.99
2024-01-05T02:22:08.384Z,987.99
2024-01-05T02:23:08.375Z,987.97
2024-01-05T02:24:08.377Z,987.95
2024-01-05T02:25:08.324Z,987.95
2024-01-05T02:26:08.360Z,987.89
2024-01-05T02:27:08.374Z,987.87
2024-01-05T02:28:08.288Z,987.87
2024-01-05T02:29:08.305Z,987.78
2024-01-05T02:30:08.399Z,987.76
2024-01-05T02:31:08.336Z,987.77
2024-01-05T02:32:08.236Z,987.74
2024-01-05T02:33:08.339Z,987.68
2024-01-05T02:34:08.382Z,987.69
2024-01-05T02:35:08.211Z,987.68
2024-01-05T02:36:08.263Z,987.64
2024-01-05T02:37:08.203Z,987.62
2024-01-05T02:38:08.178Z,987.55
2024-01-05T02:39:08.211Z,987.56
2024-01-05T02:40:08.166Z,987.60
2024-01-05T02:41:08.168Z,987.62
2024-01-05T02:42:08.198Z,987.69
2024-01-05T02:43:08.128Z,987.66
2024-01-05T02:44:08.128Z,987.62
2024-01-05T02:45:08.198Z,987.60
2024-01-05T02:46:08.103Z,987.52
2024-01-05T02:47:08.063Z,987.49
2024-01-05T02:48:08.273Z,987.49
2024-01-05T02:49:08.226Z,987.49
2024-01-05T02:50:08.039Z,987.44
2024-01-05T02:51:08.100Z,987.43
2024-01-05T02:52:07.998Z,987.40
2024-01-05T02:53:07.987Z,987.45
2024-01-05T02:54:08.041Z,987.53
2024-01-05T02:55:08.103Z,987.50
2024-01-05T02:56:07.973Z,987.49
2024-01-05T02:57:07.987Z,987.42
2024-01-05T02:58:07.940Z,987.42
2024-01-05T02:59:07.924Z,987.40
2024-01-05T03:00:07.953Z,987.34
2024-01-05T03:01:07.953Z,987.34
2024-01-05T03:02:07.913Z,987.26
2024-01-05T03:03:08.086Z,987.26
2024-01-05T03:04:08.011Z,987.26
2024-01-05T03:05:07.941Z,987.17
2024-01-05T03:06:07.872Z,987.21
2024-01-05T03:07:07.844Z,987.24
2024-01-05T03:08:07.865Z,987.17
2024-01-05T03:09:07.824Z,987.12
2024-01-05T03:10:07.806Z,987.12
2024-01-05T03:11:07.822Z,987.16
2024-01-05T03:12:07.787Z,987.11
2024-01-05T03:13:07.789Z,987.10
2024-01-05T03:14:07.776Z,987.11
2024-01-05T03:15:07.768Z,987.12
2024-01-05T03:16:07.721Z,987.13
2024-01-05T03:17:07.711Z,987.07
2024-01-05T03:18:07.813Z,987.13
2024-01-05T03:19:07.766Z,987.10
2024-01-05T03:20:07.718Z,987.03
2024-01-05T03:21:07.704Z,987.04
2024-01-05T03:22:07.659Z,987.09
2024-01-05T03:23:07.678Z,987.12
2024-01-05T03:24:07.647Z,987.01
2024-01-05T03:25:07.672Z,987.05
2024-01-05T03:26:07.633Z,987.08
2024-01-05T03:27:07.639Z,987.05
2024-01-05T03:28:07.616Z,986.99
2024-01-05T03:29:07.594Z,987.01
2024-01-05T03:30:07.662Z,987.01
2024-01-05T03:31:07.740Z,986.99
2024-01-05T03:32:07.528Z,986.94
2024-01-05T03:33:07.603Z,986.90
2024-01-05T03:34:07.731Z,986.98
2024-01-05T03:35:07.584Z,987.02
2024-01-05T03:36:07.565Z,987.00
2024-01-05T03:37:07.495Z,986.95
2024-01-05T03:38:07.481Z,986.90
2024-01-05T03:39:07.532Z,986.94
2024-01-05T03:40:07.457Z,986.92
2024-01-05T03:41:07.429Z,986.91
2024-01-05T03:42:07.471Z,986.86
2024-01-05T03:43:07.413Z,986.91
2024-01-05T03:44:07.442Z,986.85
2024-01-05T03:45:07.520Z,986.85
2024-01-05T03:46:07.379Z,986.85
2024-01-05T03:47:07.367Z,986.82
2024-01-05T03:48:07.456Z,986.84
2024-01-05T03:49:07.525Z,986.78
2024-01-05T03:50:07.396Z,986.75
2024-01-05T03:51:07.370Z,986.74
2024-01-05T03:52:07.334Z,986.68
2024-01-05T03:53:07.294Z,986.70
2024-01-05T03:54:07.353Z,986.70
2024-01-05T03:55:07.308Z,986.70
2024-01-05T03:56:07.322Z,986.77
2024-01-05T03:57:07.293Z,986.72
2024-01-05T03:58:07.299Z,986.69
2024-01-05T03:59:07.232Z,986.68
2024-01-05T04:00:07.316Z,986.70
2024-01-05T04:01:07.283Z,986.70
2024-01-05T04:02:07.246Z,986.65
2024-01-05T04:03:07.292Z,986.69
2024-01-05T04:04:07.308Z,986.67
2024-01-05T04:05:07.209Z,986.70
2024-01-05T04:06:07.210Z,986.66
2024-01-05T04:07:07.193Z,986.68
2024-01-05T04:08:07.165Z,986.71
2024-01-05T04:09:07.161Z,986.76
2024-01-05T04:10:07.148Z,986.69
2024-01-05T04:11:07.099Z,986.67
2024-01-05T04:12:07.156Z,986.64
2024-01-05T04:13:07.068Z,986.62
2024-01-05T04:14:07.218Z,986.57
2024-01-05T04:15:07.092Z,986.61
2024-01-05T04:16:07.063Z,986.62
2024-01-05T04:17:07.050Z,986.57
2024-01-05T04:18:07.258Z,986.59
2024-01-05T04:19:07.087Z,986.60
2024-01-05T04:20:07.017Z,986.57
2024-01-05T04:21:07.035Z,986.58
2024-01-05T04:22:06.984Z,986.54
2024-01-05T04:23:06.984Z,986.56
2024-01-05T04:24:07.017Z,986.48
2024-01-05T04:25:06.940Z,986.50
2024-01-05T04:26:06.926Z,986.49
2024-01-05T04:27:07.007Z,986.52
2024-01-05T04:28:06.925Z,986.47
2024-01-05T04:29:06.933Z,986.49
2024-01-05T04:30:06.949Z,986.46
2024-01-05T04:31:06.978Z,986.44
2024-01-05T04:32:06.872Z,986.44
2024-01-05T04:33:07.028Z,986.38
2024-01-05T04:34:07.072Z,986.37
2024-01-05T04:35:06.818Z,986.41
2024-01-05T04:36:06.979Z,986.39
2024-01-05T04:37:06.855Z,986.38
2024-01-05T04:38:06.790Z,986.32
2024-01-05T04:39:06.831Z,986.34
2024-01-05T04:40:06.766Z,986.31
2024-01-05T04:41:06.776Z,986.24
2024-01-05T04:42:06.790Z,986.25
2024-01-05T04:43:06.723Z,986.23
2024-01-05T04:44:06.730Z,986.26
2024-01-05T04:45:06.776Z,986.19
2024-01-05T04:46:06.686Z,986.15
2024-01-05T04:47:06.692Z,986.14
2024-01-05T04:48:06.772Z,986.16
2024-01-05T04:49:06.825Z,986.13
2024-01-05T04:50:06.664Z,986.10
2024-01-05T04:51:06.751Z,986.14
2024-01-05T04:52:06.655Z,986.13
2024-01-05T04:53:06.631Z,986.15
2024-01-05T04:54:06.694Z,986.06
2024-01-05T04:55:06.680Z,986.14
2024-01-05T04:56:06.610Z,986.03
2024-01-05T04:57:06.597Z,986.10
2024-01-05T04:58:06.567Z,986.07
2024-01-05T04:59:06.579Z,986.09
2024-01-05T05:00:06.564Z,986.17
2024-01-05T05:01:06.547Z,986.14
2024-01-05T05:02:06.494Z,986.15
2024-01-05T05:03:06.612Z,986.14
2024-01-05T05:04:06.632Z,986.04
2024-01-05T05:05:06.529Z,986.03
2024-01-05T05:06:06.481Z,986.01
2024-01-05T05:07:06.493Z,985.88
2024-01-05T05:08:06.495Z,985.93
2024-01-05T05:09:06.479Z,985.91
2024-01-05T05:10:06.443Z,985.91
2024-01-05T05:11:06.414Z,985.91
2024-01-05T05:12:06.417Z,985.89
2024-01-05T05:13:06.376Z,985.90
2024-01-05T05:14:06.410Z,985.92
2024-01-05T05:15:06.396Z,985.90
2024-01-05T05:16:06.394Z,985.88
2024-01-05T05:17:06.350Z,985.92
2024-01-05T05:18:06.467Z,985.91
2024-01-05T05:19:06.464Z,985.82
2024-01-05T05:20:06.297Z,985.90
2024-01-05T05:21:06.362Z,985.86
2024-01-05T05:22:06.343Z,985.88
2024-01-05T05:23:06.261Z,985.72
2024-01-05T05:24:06.295Z,985.86
2024-01-05T05:25:07.563Z,985.91
2024-01-05T05:26:06.258Z,985.86
2024-01-05T05:27:06.266Z,985.91
2024-01-05T05:28:06.228Z,985.91
2024-01-05T05:29:06.189Z,985.88
2024-01-05T05:30:06.379Z,985.83
2024-01-05T05:31:06.316Z,985.77
2024-01-05T05:32:06.183Z,985.81
2024-01-05T05:33:06.213Z,985.78
2024-01-05T05:34:06.275Z,985.79
2024-01-05T05:35:06.146Z,985.80
2024-01-05T05:36:06.153Z,985.79
2024-01-05T05:37:06.135Z,985.86
2024-01-05T05:38:06.104Z,985.82
2024-01-05T05:39:06.131Z,985.78
2024-01-05T05:40:06.069Z,985.80
2024-01-05T05:41:06.100Z,985.76
2024-01-05T05:42:06.091Z,985.79
2024-01-05T05:43:06.052Z,985.80
2024-01-05T05:44:06.036Z,985.84
2024-01-05T05:45:06.009Z,985.88
2024-01-05T05:46:06.020Z,985.87
2024-01-05T05:47:06.016Z,985.92
2024-01-05T05:48:06.083Z,985.84
2024-01-05T05:49:06.054Z,985.91
2024-01-05T05:50:05.971Z,985.91
2024-01-05T05:51:05.991Z,985.84
2024-01-05T05:52:05.950Z,985.89
2024-01-05T05:53:05.961Z,985.90
2024-01-05T05:54:05.945Z,985.90
2024-01-05T05:55:05.900Z,985.92
2024-01-05T05:56:05.876Z,985.88
2024-01-05T05:57:05.904Z,985.92
2024-01-05T05:58:06.470Z,985.93
2024-01-05T05:59:05.864Z,985.90
2024-01-05T06:00:05.857Z,985.88
2024-01-05T06:01:05.866Z,985.97
2024-01-05T06:02:05.826Z,986.00
2024-01-05T06:03:05.850Z,985.92
2024-01-05T06:04:05.890Z,985.95
2024-01-05T06:05:05.791Z,985.96
2024-01-05T06:06:05.871Z,985.87
2024-01-05T06:07:05.810Z,985.88
2024-01-05T06:08:05.758Z,985.86
2024-01-05T06:09:05.757Z,985.81
2024-01-05T06:10:05.727Z,985.88
2024-01-05T06:11:05.709Z,985.85
2024-01-05T06:12:05.839Z,985.88
2024-01-05T06:13:05.690Z,985.84
2024-01-05T06:14:05.705Z,985.83
2024-01-05T06:15:05.746Z,985.83
2024-01-05T06:16:05.669Z,985.85
2024-01-05T06:17:05.686Z,985.83
2024-01-05T06:18:05.824Z,985.92
2024-01-05T06:19:05.791Z,985.83
2024-01-05T06:20:05.628Z,985.84
2024-01-05T06:21:05.636Z,985.94
2024-01-05T06:22:05.607Z,985.89
2024-01-05T06:23:05.623Z,985.94
2024-01-05T06:24:05.650Z,985.84
2024-01-05T06:25:05.597Z,985.91
2024-01-05T06:26:05.548Z,985.85
2024-01-05T06:27:05.636Z,985.85
2024-01-05T06:28:05.617Z,985.72
2024-01-05T06:29:05.551Z,985.76
2024-01-05T06:30:05.607Z,985.78
2024-01-05T06:31:05.617Z,985.78
2024-01-05T06:32:05.475Z,985.80
2024-01-05T06:33:05.580Z,985.76
2024-01-05T06:34:05.519Z,985.83
2024-01-05T06:35:05.445Z,985.79
2024-01-05T06:36:05.583Z,985.86
2024-01-05T06:37:05.401Z,985.81
2024-01-05T06:38:05.415Z,985.80
2024-01-05T06:39:05.415Z,985.84
2024-01-05T06:40:05.386Z,985.78
2024-01-05T06:41:05.377Z,985.86
2024-01-05T06:42:08.260Z,985.81
2024-01-05T06:43:05.345Z,985.82
2024-01-05T06:44:05.324Z,985.79
2024-01-05T06:45:05.366Z,985.84
2024-01-05T06:46:05.315Z,985.83
2024-01-05T06:47:05.321Z,985.76
2024-01-05T06:48:05.474Z,985.80
2024-01-05T06:49:05.506Z,985.79
2024-01-05T06:50:06.096Z,985.76
2024-01-05T06:51:05.360Z,985.82
2024-01-05T06:52:05.213Z,985.78
2024-01-05T06:53:05.225Z,985.77
2024-01-05T06:54:05.267Z,985.76
2024-01-05T06:55:05.215Z,985.77
2024-01-05T06:56:05.184Z,985.76
2024-01-05T06:57:05.241Z,985.76
2024-01-05T06:58:05.173Z,985.82
2024-01-05T06:59:05.168Z,985.74
2024-01-05T07:00:05.171Z,985.76
2024-01-05T07:01:05.166Z,985.77
2024-01-05T07:02:05.119Z,985.72
2024-01-05T07:03:05.187Z,985.71
2024-01-05T07:04:05.211Z,985.81
2024-01-05T07:05:05.114Z,985.72
2024-01-05T07:06:05.104Z,985.70
2024-01-05T07:07:05.062Z,985.72
2024-01-05T07:08:05.053Z,985.73
2024-01-05T07:09:05.087Z,985.68
2024-01-05T07:10:05.015Z,985.70
2024-01-05T07:11:05.028Z,985.72
2024-01-05T07:12:05.072Z,985.76
2024-01-05T07:13:04.968Z,985.75
2024-01-05T07:14:04.973Z,985.82
2024-01-05T07:15:04.966Z,985.70
2024-01-05T07:16:04.951Z,985.70
2024-01-05T07:17:04.977Z,985.73
2024-01-05T07:18:04.999Z,985.76
2024-01-05T07:19:05.041Z,985.72
2024-01-05T07:20:04.931Z,985.69
2024-01-05T07:21:04.935Z,985.73
2024-01-05T07:22:04.887Z,985.71
2024-01-05T07:23:04.865Z,985.71
2024-01-05T07:24:04.844Z,985.75
2024-01-05T07:25:04.856Z,985.72
2024-01-05T07:26:04.830Z,985.74
2024-01-05T07:27:04.881Z,985.73
2024-01-05T07:28:04.859Z,985.71
2024-01-05T07:29:04.811Z,985.78
2024-01-05T07:30:04.921Z,985.69
2024-01-05T07:31:04.926Z,985.64
2024-01-05T07:32:04.746Z,985.67
2024-01-05T07:33:04.902Z,985.66
2024-01-05T07:34:04.786Z,985.61
2024-01-05T07:35:04.720Z,985.58
2024-01-05T07:36:04.749Z,985.55
2024-01-05T07:37:04.726Z,985.61
2024-01-05T07:38:04.695Z,985.50
2024-01-05T07:39:04.699Z,985.53
2024-01-05T07:40:04.667Z,985.50
2024-01-05T07:41:04.665Z,985.47
2024-01-05T07:42:04.736Z,985.50
2024-01-05T07:43:04.642Z,985.49
2024-01-05T07:44:04.611Z,985.51
2024-01-05T07:45:04.652Z,985.50
2024-01-05T07:46:04.602Z,985.53
2024-01-05T07:47:04.587Z,985.49
2024-01-05T07:48:04.825Z,985.54
2024-01-05T07:49:04.679Z,985.54
2024-01-05T07:50:04.554Z,985.57
2024-01-05T07:51:04.605Z,985.54
2024-01-05T07:52:04.550Z,985.50
2024-01-05T07:53:04.574Z,985.57
2024-01-05T07:54:04.592Z,985.52
2024-01-05T07:55:04.501Z,985.57
2024-01-05T07:56:04.530Z,985.47
2024-01-05T07:57:04.526Z,985.49
2024-01-05T07:58:04.463Z,985.45
2024-01-05T07:59:04.442Z,985.42
2024-01-05T08:00:04.469Z,985.46
2024-01-05T08:01:04.479Z,985.41
2024-01-05T08:02:04.459Z,985.40
2024-01-05T08:03:04.519Z,985.40
2024-01-05T08:04:04.630Z,985.36
2024-01-05T08:05:04.380Z,985.39
2024-01-05T08:06:04.474Z,985.40
2024-01-05T08:07:04.476Z,985.44
2024-01-05T08:08:04.402Z,985.43
2024-01-05T08:09:04.371Z,985.46
2024-01-05T08:10:04.332Z,985.40
2024-01-05T08:11:04.309Z,985.39
2024-01-05T08:12:04.335Z,985.39
2024-01-05T08:13:04.314Z,985.40
2024-01-05T08:14:04.310Z,985.39
2024-01-05T08:15:04.286Z,985.36
2024-01-05T08:16:04.258Z,985.38
2024-01-05T08:17:04.244Z,985.43
2024-01-05T08:18:04.487Z,985.44
2024-01-05T08:19:04.428Z,985.40
2024-01-05T08:20:04.314Z,985.39
2024-01-05T08:21:04.241Z,985.45
2024-01-05T08:22:04.204Z,985.46
2024-01-05T08:23:04.178Z,985.41
2024-01-05T08:24:04.209Z,985.49
2024-01-05T08:25:04.185Z,985.43
2024-01-05T08:26:04.119Z,985.43
2024-01-05T08:27:04.208Z,985.49
2024-01-05T08:28:04.141Z,985.46
2024-01-05T08:29:04.100Z,985.44
2024-01-05T08:30:04.194Z,985.50
2024-01-05T08:31:04.231Z,985.48
2024-01-05T08:32:04.225Z,985.53
2024-01-05T08:33:04.228Z,985.54
2024-01-05T08:34:04.304Z,985.51
2024-01-05T08:35:04.024Z,985.55
2024-01-05T08:36:04.163Z,985.61
2024-01-05T08:37:04.045Z,985.69
2024-01-05T08:38:04.068Z,985.66
2024-01-05T08:39:04.151Z,985.72
2024-01-05T08:40:04.076Z,985.75
2024-01-05T08:41:04.118Z,985.74
2024-01-05T08:42:03.978Z,985.75
2024-01-05T08:43:04.077Z,985.71
2024-01-05T08:44:03.928Z,985.72
2024-01-05T08:45:04.053Z,985.69
2024-01-05T08:46:03.924Z,985.68
2024-01-05T08:47:03.909Z,985.71
2024-01-05T08:48:04.055Z,985.71
2024-01-05T08:49:04.037Z,985.61
2024-01-05T08:50:03.893Z,985.62
2024-01-05T08:51:03.937Z,985.58
2024-01-05T08:52:03.849Z,985.65
2024-01-05T08:53:03.807Z,985.60
2024-01-05T08:54:03.924Z,985.57
2024-01-05T08:55:03.806Z,985.61
2024-01-05T08:56:03.797Z,985.63
2024-01-05T08:57:03.827Z,985.62
2024-01-05T08:58:03.887Z,985.61
2024-01-05T08:59:03.744Z,985.59
2024-01-05T09:00:03.892Z,985.59
2024-01-05T09:01:03.853Z,985.59
2024-01-05T09:02:03.767Z,985.57
2024-01-05T09:03:03.721Z,985.58
2024-01-05T09:04:03.768Z,985.60
2024-01-05T09:05:03.713Z,985.65
2024-01-05T09:06:03.725Z,985.62
2024-01-05T09:07:03.699Z,985.58
2024-01-05T09:08:03.634Z,985.58
2024-01-05T09:09:03.666Z,985.61
2024-01-05T09:10:03.605Z,985.66
2024-01-05T09:11:03.597Z,985.65
2024-01-05T09:12:03.674Z,985.62
2024-01-05T09:13:03.613Z,985.65
2024-01-05T09:14:03.583Z,985.63
2024-01-05T09:15:03.576Z,985.62
2024-01-05T09:16:03.551Z,985.64
2024-01-05T09:17:03.534Z,985.65
2024-01-05T09:18:03.629Z,985.61
2024-01-05T09:19:03.614Z,985.61
2024-01-05T09:20:03.654Z,985.62
2024-01-05T09:21:03.613Z,985.57
2024-01-05T09:22:03.507Z,985.52
2024-01-05T09:23:03.441Z,985.48
2024-01-05T09:24:03.519Z,985.49
2024-01-05T09:25:03.422Z,985.56
2024-01-05T09:26:03.446Z,985.54
2024-01-05T09:27:03.452Z,985.56
2024-01-05T09:28:03.400Z,985.58
2024-01-05T09:29:03.417Z,985.54
2024-01-05T09:30:03.392Z,985.49
2024-01-05T09:31:03.410Z,985.56
2024-01-05T09:32:03.348Z,985.60
2024-01-05T09:33:03.486Z,985.59
2024-01-05T09:34:03.421Z,985.58
2024-01-05T09:35:03.345Z,985.51
2024-01-05T09:36:03.325Z,985.54
2024-01-05T09:37:03.292Z,985.57
2024-01-05T09:38:03.282Z,985.53
2024-01-05T09:39:03.311Z,985.51
2024-01-05T09:40:03.297Z,985.49
2024-01-05T09:41:03.265Z,985.50
2024-01-05T09:42:03.269Z,985.58
2024-01-05T09:43:03.203Z,985.50
2024-01-05T09:44:03.202Z,985.52
2024-01-05T09:45:03.272Z,985.52
2024-01-05T09:46:03.190Z,985.50
2024-01-05T09:47:03.172Z,985.51
2024-01-05T09:48:03.337Z,985.50
2024-01-05T09:49:03.307Z,985.49
2024-01-05T09:50:03.273Z,985.41
2024-01-05T09:51:03.159Z,985.50
2024-01-05T09:52:03.137Z,985.47
2024-01-05T09:53:03.108Z,985.46
2024-01-05T09:54:03.125Z,985.45
2024-01-05T09:55:03.084Z,985.43
2024-01-05T09:56:03.070Z,985.38
2024-01-05T09:57:03.154Z,985.38
2024-01-05T09:58:03.054Z,985.33
2024-01-05T09:59:03.026Z,985.37
2024-01-05T10:00:03.059Z,985.39
2024-01-05T10:01:03.052Z,985.38
2024-01-05T10:02:02.984Z,985.35
2024-01-05T10:03:03.069Z,985.36
2024-01-05T10:04:03.616Z,985.33
2024-01-05T10:05:03.083Z,985.33
2024-01-05T10:06:03.025Z,985.40
2024-01-05T10:07:03.012Z,985.40
2024-01-05T10:08:02.969Z,985.47
2024-01-05T10:09:02.937Z,985.55
2024-01-05T10:10:02.938Z,985.49
2024-01-05T10:11:02.909Z,985.47
2024-01-05T10:12:02.885Z,985.48
2024-01-05T10:13:02.874Z,985.40
2024-01-05T10:14:02.906Z,985.45
2024-01-05T10:15:02.834Z,985.47
2024-01-05T10:16:02.824Z,985.45
2024-01-05T10:17:02.825Z,985.37
2024-01-05T10:18:03.044Z,985.35
2024-01-05T10:19:02.912Z,985.35
2024-01-05T10:20:02.949Z,985.26
2024-01-05T10:21:02.805Z,985.23
2024-01-05T10:22:02.762Z,985.25
2024-01-05T10:23:02.746Z,985.16
2024-01-05T10:24:02.755Z,985.20
2024-01-05T10:25:02.737Z,985.11
2024-01-05T10:26:02.718Z,985.07
2024-01-05T10:27:02.738Z,985.03
2024-01-05T10:28:02.692Z,984.99
2024-01-05T10:29:02.651Z,984.93
2024-01-05T10:30:02.785Z,985.00
2024-01-05T10:31:02.739Z,985.03
2024-01-05T10:32:02.645Z,984.96
2024-01-05T10:33:02.692Z,984.95
2024-01-05T10:34:02.756Z,984.97
2024-01-05T10:35:02.724Z,984.95
2024-01-05T10:36:02.614Z,984.92
2024-01-05T10:37:02.564Z,984.94
2024-01-05T10:38:02.581Z,984.89
2024-01-05T10:39:02.576Z,984.94
2024-01-05T10:40:02.554Z,984.89
2024-01-05T10:41:02.585Z,984.84
2024-01-05T10:42:02.574Z,984.86
2024-01-05T10:43:02.532Z,984.83
2024-01-05T10:44:02.493Z,984.80
2024-01-05T10:45:02.599Z,984.76
2024-01-05T10:46:02.457Z,984.74
2024-01-05T10:47:02.450Z,984.72
2024-01-05T10:48:02.689Z,984.67
2024-01-05T10:49:02.640Z,984.63
2024-01-05T10:50:02.885Z,984.66
2024-01-05T10:51:02.485Z,984.58
2024-01-05T10:52:02.374Z,984.60
2024-01-05T10:53:02.370Z,984.61
2024-01-05T10:54:02.426Z,984.56
2024-01-05T10:55:02.393Z,984.63
2024-01-05T10:56:02.370Z,984.63
2024-01-05T10:57:02.373Z,984.64
2024-01-05T10:58:02.313Z,984.66
2024-01-05T10:59:02.308Z,984.64
2024-01-05T11:00:02.474Z,984.67
2024-01-05T11:01:02.599Z,984.64
2024-01-05T11:02:02.279Z,984.73
2024-01-05T11:03:02.258Z,984.67
2024-01-05T11:04:02.392Z,984.70
2024-01-05T11:05:02.357Z,984.66
2024-01-05T11:06:02.326Z,984.61
2024-01-05T11:07:02.327Z,984.63
2024-01-05T11:08:02.243Z,984.67
2024-01-05T11:09:02.205Z,984.57
2024-01-05T11:10:02.188Z,984.65
2024-01-05T11:11:02.196Z,984.70
2024-01-05T11:12:02.218Z,984.74
2024-01-05T11:13:02.171Z,984.78
2024-01-05T11:14:02.214Z,984.79
2024-01-05T11:15:02.194Z,984.74
2024-01-05T11:16:02.154Z,984.83
2024-01-05T11:17:02.145Z,984.83
2024-01-05T11:18:02.235Z,984.84
2024-01-05T11:19:02.380Z,984.80
2024-01-05T11:20:02.221Z,984.80
2024-01-05T11:21:02.098Z,984.78
2024-01-05T11:22:02.077Z,984.75
2024-01-05T11:23:02.049Z,984.79
2024-01-05T11:24:02.061Z,984.80
2024-01-05T11:25:02.013Z,984.84
2024-01-05T11:26:02.013Z,984.84
2024-01-05T11:27:02.028Z,984.91
2024-01-05T11:28:02.013Z,984.98
2024-01-05T11:29:01.977Z,984.88
2024-01-05T11:30:02.145Z,984.87
2024-01-05T11:31:02.017Z,984.94
2024-01-05T11:32:01.930Z,984.84
2024-01-05T11:33:02.091Z,984.83
2024-01-05T11:34:02.132Z,984.89
2024-01-05T11:35:01.936Z,984.87
2024-01-05T11:36:01.908Z,984.88
2024-01-05T11:37:01.875Z,984.84
2024-01-05T11:38:01.917Z,984.75
2024-01-05T11:39:01.902Z,984.86
2024-01-05T11:40:02.142Z,984.80
2024-01-05T11:41:01.832Z,984.77
2024-01-05T11:42:01.909Z,984.75
2024-01-05T11:43:01.817Z,984.73
2024-01-05T11:44:01.833Z,984.66
2024-01-05T11:45:02.051Z,984.61
2024-01-05T11:46:01.765Z,984.63
2024-01-05T11:47:01.744Z,984.53
2024-01-05T11:48:01.879Z,984.53
2024-01-05T11:49:01.796Z,984.53
2024-01-05T11:50:01.763Z,984.59
2024-01-05T11:51:01.740Z,984.62
2024-01-05T11:52:01.710Z,984.63
2024-01-05T11:53:01.687Z,984.65
2024-01-05T11:54:01.730Z,984.64
2024-01-05T11:55:01.666Z,984.76
2024-01-05T11:56:01.715Z,984.64
2024-01-05T11:57:01.740Z,984.63
2024-01-05T11:58:01.629Z,984.57
2024-01-05T11:59:01.613Z,984.57
2024-01-05T12:00:01.660Z,984.58
2024-01-05T12:01:01.852Z,984.56
2024-01-05T12:02:01.607Z,984.57
2024-01-05T12:03:01.660Z,984.52
2024-01-05T12:04:01.611Z,984.56
2024-01-05T12:05:01.576Z,984.62
2024-01-05T12:06:01.709Z,984.60
2024-01-05T12:07:01.548Z,984.59
2024-01-05T12:08:01.550Z,984.60
2024-01-05T12:09:01.631Z,984.56
2024-01-05T12:10:01.491Z,984.58
2024-01-05T12:11:01.493Z,984.63
2024-01-05T12:12:01.513Z,984.73
2024-01-05T12:13:01.434Z,984.69
2024-01-05T12:14:01.494Z,984.73
2024-01-05T12:15:01.475Z,984.73
2024-01-05T12:16:02.590Z,984.75
2024-01-05T12:17:01.402Z,984.72
2024-01-05T12:18:01.565Z,984.63
2024-01-05T12:19:01.644Z,984.65
2024-01-05T12:20:01.489Z,984.67
2024-01-05T12:21:01.384Z,984.61
2024-01-05T12:22:01.367Z,984.62
2024-01-05T12:23:01.329Z,984.63
2024-01-05T12:24:01.386Z,984.65
2024-01-05T12:25:01.325Z,984.66
2024-01-05T12:26:01.298Z,984.65
2024-01-05T12:27:01.373Z,984.61
2024-01-05T12:28:01.282Z,984.63